createdAt,value
2022-12-08T00:01:41.985Z,99.98
2022-12-08T00:04:11.067Z,100.00
2022-12-08T00:07:02.367Z,100.00
2022-12-08T00:09:42.123Z,100.00
2022-12-08T00:12:16.905Z,100.00
2022-12-08T00:14:47.731Z,100.00
2022-12-08T00:17:17.362Z,100.00
2022-12-08T00:19:45.935Z,100.00
2022-12-08T00:22:15.343Z,100.00
2022-12-08T00:24:47.616Z,100.00
2022-12-08T00:27:18.212Z,100.00
2022-12-08T00:29:46.868Z,100.00
2022-12-08T00:32:15.320Z,100.00
2022-12-08T00:34:43.681Z,100.00
2022-12-08T00:37:11.970Z,100.00
2022-12-08T00:39:40.213Z,99.98
2022-12-08T00:42:14.345Z,100.00
2022-12-08T00:44:44.145Z,100.00
2022-12-08T00:47:13.795Z,99.95
2022-12-08T00:49:42.417Z,99.96
2022-12-08T00:52:10.782Z,99.78
2022-12-08T00:54:39.087Z,99.71
2022-12-08T00:57:07.494Z,99.49
2022-12-08T00:59:35.870Z,99.49
2022-12-08T01:02:04.258Z,99.58
2022-12-08T01:04:32.630Z,99.58
2022-12-08T01:07:00.925Z,99.91
2022-12-08T01:09:29.289Z,99.93
2022-12-08T01:11:57.678Z,99.96
2022-12-08T01:14:26.183Z,99.90
2022-12-08T01:16:55.189Z,99.64
2022-12-08T01:19:23.788Z,99.36
2022-12-08T01:21:52.154Z,99.14
2022-12-08T01:24:21.608Z,99.01
2022-12-08T01:26:51.661Z,98.71
2022-12-08T01:29:20.012Z,99.00
2022-12-08T01:31:48.472Z,99.42
2022-12-08T01:34:16.853Z,100.00
2022-12-08T01:36:45.226Z,100.00
2022-12-08T01:39:18.972Z,100.00
2022-12-08T01:41:48.036Z,100.00
2022-12-08T01:44:16.284Z,99.80
2022-12-08T01:46:50.037Z,99.52
2022-12-08T01:49:34.778Z,99.06
2022-12-08T01:52:05.263Z,98.81
2022-12-08T01:54:44.887Z,98.73
2022-12-08T01:57:21.728Z,98.33
2022-12-08T02:00:08.158Z,97.96
2022-12-08T02:02:48.322Z,97.50
2022-12-08T02:05:19.055Z,97.74
2022-12-08T02:07:48.720Z,97.47
2022-12-08T02:10:22.691Z,97.70
2022-12-08T02:12:54.683Z,97.63
2022-12-08T02:16:10.233Z,97.85
2022-12-08T02:22:14.543Z,98.43
2022-12-08T02:25:03.672Z,98.22
2022-12-08T02:27:56.817Z,97.98
2022-12-08T02:31:12.101Z,97.50
2022-12-08T02:34:08.282Z,98.19
2022-12-08T02:37:04.369Z,98.70
2022-12-08T02:39:44.028Z,99.07
2022-12-08T02:42:14.994Z,99.41
2022-12-08T02:44:55.403Z,99.20
2022-12-08T02:47:27.861Z,99.10
2022-12-08T02:49:58.003Z,99.07
2022-12-08T02:52:26.259Z,99.20
2022-12-08T02:55:06.607Z,99.39
2022-12-08T02:58:15.235Z,98.88
2022-12-08T03:01:09.463Z,97.84
2022-12-08T03:03:59.870Z,98.42
2022-12-08T03:06:39.269Z,98.71
2022-12-08T03:09:16.138Z,99.28
2022-12-08T03:12:31.992Z,99.25
2022-12-08T03:15:06.533Z,98.94
2022-12-08T03:17:36.916Z,98.61
2022-12-08T03:20:11.063Z,98.38
2022-12-08T03:22:42.090Z,98.53
2022-12-08T03:25:14.933Z,98.65
2022-12-08T03:27:44.061Z,98.18
2022-12-08T03:30:12.975Z,98.12
2022-12-08T03:32:48.035Z,98.01
2022-12-08T03:35:28.162Z,97.88
2022-12-08T03:38:12.716Z,97.91
2022-12-08T03:40:41.842Z,97.88
2022-12-08T03:43:10.767Z,96.88
2022-12-08T03:45:39.091Z,96.80
2022-12-08T03:48:07.387Z,96.73
2022-12-08T03:50:35.728Z,96.56
2022-12-08T03:53:04.020Z,96.50
2022-12-08T03:55:32.322Z,96.38
2022-12-08T03:58:00.697Z,96.59
2022-12-08T04:00:29.052Z,96.82
2022-12-08T04:02:57.403Z,96.97
2022-12-08T04:05:25.741Z,96.61
2022-12-08T04:07:58.491Z,96.81
2022-12-08T04:10:27.057Z,97.02
2022-12-08T04:12:57.278Z,97.32
2022-12-08T04:15:25.568Z,97.59
2022-12-08T04:17:53.902Z,97.81
2022-12-08T04:20:22.259Z,97.86
2022-12-08T04:22:50.585Z,97.62
2022-12-08T04:25:19.113Z,97.84
2022-12-08T04:27:47.433Z,97.58
2022-12-08T04:30:15.800Z,97.39
2022-12-08T04:32:47.378Z,97.20
2022-12-08T04:35:16.227Z,97.43
2022-12-08T04:37:44.664Z,97.15
2022-12-08T04:40:13.759Z,97.28
2022-12-08T04:42:42.787Z,97.13
2022-12-08T04:45:11.724Z,97.35
2022-12-08T04:47:40.059Z,97.04
2022-12-08T04:50:09.055Z,96.91
2022-12-08T04:52:37.549Z,96.84
2022-12-08T04:55:06.509Z,97.09
2022-12-08T04:57:34.875Z,96.99
2022-12-08T05:00:06.423Z,96.82
2022-12-08T05:02:35.784Z,96.73
2022-12-08T05:05:05.352Z,97.32
2022-12-08T05:07:34.131Z,96.60
2022-12-08T05:10:03.463Z,96.31
2022-12-08T05:12:32.037Z,96.49
2022-12-08T05:15:00.514Z,96.40
2022-12-08T05:17:28.846Z,96.40
2022-12-08T05:19:57.166Z,96.60
2022-12-08T05:22:25.509Z,96.53
2022-12-08T05:24:53.793Z,97.02
2022-12-08T05:27:22.060Z,97.29
2022-12-08T05:29:50.373Z,97.11
2022-12-08T05:32:18.705Z,97.24
2022-12-08T05:34:47.161Z,97.33
2022-12-08T05:37:15.688Z,97.16
2022-12-08T05:39:43.974Z,96.81
2022-12-08T05:42:12.271Z,97.44
2022-12-08T05:44:40.600Z,97.81
2022-12-08T05:47:08.985Z,97.51
2022-12-08T05:49:37.279Z,97.41
2022-12-08T05:52:05.894Z,97.66
2022-12-08T05:54:34.194Z,97.88
2022-12-08T05:57:02.501Z,98.11
2022-12-08T05:59:30.785Z,98.29
2022-12-08T06:01:59.186Z,98.14
2022-12-08T06:04:27.586Z,98.57
2022-12-08T06:06:55.872Z,98.76
2022-12-08T06:09:24.423Z,98.41
2022-12-08T06:11:52.750Z,98.64
2022-12-08T06:14:21.231Z,99.29
2022-12-08T06:16:49.597Z,99.04
2022-12-08T06:19:18.057Z,99.07
2022-12-08T06:21:46.311Z,98.97
2022-12-08T06:24:15.045Z,98.84
2022-12-08T06:26:43.545Z,99.11
2022-12-08T06:29:11.861Z,98.74
2022-12-08T06:31:40.507Z,98.22
2022-12-08T06:34:08.903Z,98.45
2022-12-08T06:36:37.307Z,99.09
2022-12-08T06:39:05.687Z,99.30
2022-12-08T06:41:54.136Z,99.60
2022-12-08T06:44:22.724Z,99.72
2022-12-08T06:46:51.109Z,99.97
2022-12-08T06:49:19.437Z,100.00
2022-12-08T06:51:47.730Z,100.00
2022-12-08T06:54:16.004Z,100.00
2022-12-08T06:56:44.268Z,100.00
2022-12-08T06:59:12.638Z,100.00
2022-12-08T07:01:41.060Z,99.96
2022-12-08T07:04:09.774Z,100.00
2022-12-08T07:06:38.232Z,100.00
2022-12-08T07:09:06.594Z,100.00
2022-12-08T07:11:35.008Z,100.00
2022-12-08T07:14:03.354Z,100.00
2022-12-08T07:16:31.742Z,100.00
2022-12-08T07:19:00.909Z,100.00
2022-12-08T07:21:29.276Z,99.93
2022-12-08T07:23:58.134Z,100.00
2022-12-08T07:26:27.128Z,100.00
2022-12-08T07:28:55.455Z,99.12
2022-12-08T07:31:26.193Z,99.16
2022-12-08T07:33:56.940Z,99.70
2022-12-08T07:36:25.688Z,99.98
2022-12-08T07:38:54.544Z,100.00
2022-12-08T07:41:25.365Z,100.00
2022-12-08T07:43:54.298Z,100.00
2022-12-08T07:46:24.924Z,100.00
2022-12-08T07:48:54.793Z,99.96
2022-12-08T07:51:25.028Z,99.91
2022-12-08T07:53:54.603Z,98.84
2022-12-08T07:56:23.570Z,98.99
2022-12-08T07:58:51.946Z,98.22
2022-12-08T08:01:29.534Z,98.46
2022-12-08T08:04:02.068Z,98.67
2022-12-08T08:06:33.087Z,98.88
2022-12-08T08:09:01.377Z,98.75
2022-12-08T08:11:30.056Z,98.65
2022-12-08T08:13:58.488Z,98.58
2022-12-08T08:16:27.251Z,99.42
2022-12-08T08:18:55.930Z,99.57
2022-12-08T08:24:12.604Z,98.49
2022-12-08T08:26:40.918Z,99.63
2022-12-08T08:29:09.207Z,99.46
2022-12-08T08:31:37.590Z,99.11
2022-12-08T08:34:06.680Z,99.52
2022-12-08T08:36:36.107Z,99.01
2022-12-08T08:39:04.695Z,97.46
2022-12-08T08:41:33.615Z,97.45
2022-12-08T08:44:02.028Z,98.20
2022-12-08T08:46:30.753Z,98.29
2022-12-08T08:48:59.264Z,98.26
2022-12-08T08:51:28.758Z,98.45
2022-12-08T08:53:57.675Z,98.80
2022-12-08T08:56:26.294Z,98.44
2022-12-08T08:58:55.009Z,98.89
2022-12-08T09:01:26.934Z,96.52
2022-12-08T09:03:56.479Z,95.78
2022-12-08T09:06:26.099Z,96.20
2022-12-08T09:08:54.453Z,97.57
2022-12-08T09:11:23.663Z,98.42
2022-12-08T09:13:53.780Z,98.43
2022-12-08T09:16:23.246Z,97.62
2022-12-08T09:18:52.115Z,96.45
2022-12-08T09:21:25.968Z,96.51
2022-12-08T09:23:58.345Z,96.86
2022-12-08T09:26:28.852Z,97.65
2022-12-08T09:28:58.249Z,97.81
2022-12-08T09:31:26.908Z,97.97
2022-12-08T09:33:55.283Z,98.41
2022-12-08T09:36:23.683Z,98.54
2022-12-08T09:38:53.838Z,98.28
2022-12-08T09:41:50.211Z,97.33
2022-12-08T09:44:42.430Z,97.16
2022-12-08T09:47:39.917Z,97.84
2022-12-08T09:50:31.306Z,98.09
2022-12-08T09:53:09.065Z,97.81
2022-12-08T09:55:51.045Z,97.48
2022-12-08T09:59:05.426Z,96.91
2022-12-08T10:01:39.893Z,96.01
2022-12-08T10:04:22.671Z,95.77
2022-12-08T10:07:18.236Z,95.75
2022-12-08T10:10:12.586Z,95.38
2022-12-08T10:13:24.798Z,97.14
2022-12-08T10:16:34.941Z,96.89
2022-12-08T10:19:18.148Z,96.62
2022-12-08T10:21:46.935Z,97.43
2022-12-08T10:24:32.590Z,97.66
2022-12-08T10:27:02.570Z,96.87
2022-12-08T10:29:30.843Z,96.31
2022-12-08T10:32:00.201Z,96.15
2022-12-08T10:34:28.594Z,95.07
2022-12-08T10:37:00.766Z,96.41
2022-12-08T10:39:45.811Z,96.49
2022-12-08T10:42:14.241Z,96.50
2022-12-08T10:45:09.870Z,96.18
2022-12-08T10:47:45.336Z,95.89
2022-12-08T10:50:28.080Z,94.82
2022-12-08T10:53:08.975Z,94.62
2022-12-08T10:55:51.108Z,95.57
2022-12-08T10:58:42.883Z,94.44
2022-12-08T11:01:25.909Z,94.04
2022-12-08T11:03:59.270Z,94.13
2022-12-08T11:06:40.894Z,95.20
2022-12-08T11:09:18.266Z,95.62
2022-12-08T11:11:56.907Z,95.35
2022-12-08T11:14:33.545Z,94.74
2022-12-08T11:17:07.413Z,95.10
2022-12-08T11:19:41.809Z,95.39
2022-12-08T11:22:40.902Z,95.41
2022-12-08T11:25:11.869Z,95.78
2022-12-08T11:27:46.686Z,95.80
2022-12-08T11:30:28.123Z,95.23
2022-12-08T11:33:16.519Z,94.45
2022-12-08T11:35:50.445Z,95.00
2022-12-08T11:38:24.813Z,94.56
2022-12-08T11:41:05.037Z,95.11
2022-12-08T11:43:55.037Z,94.22
2022-12-08T11:46:34.686Z,93.50
2022-12-08T11:49:09.819Z,92.98
2022-12-08T11:52:00.975Z,94.00
2022-12-08T11:54:44.708Z,94.09
2022-12-08T11:57:21.005Z,93.22
2022-12-08T11:59:52.551Z,93.22
2022-12-08T12:02:31.236Z,94.01
2022-12-08T12:05:39.883Z,94.37
2022-12-08T12:08:28.665Z,94.64
2022-12-08T12:12:03.304Z,93.76
2022-12-08T12:14:55.825Z,93.15
2022-12-08T12:17:45.331Z,93.58
2022-12-08T12:20:37.477Z,93.12
2022-12-08T12:23:27.613Z,93.73
2022-12-08T12:26:01.259Z,92.85
2022-12-08T12:28:46.509Z,92.35
2022-12-08T12:31:19.694Z,91.84
2022-12-08T12:33:50.008Z,92.53
2022-12-08T12:36:18.429Z,92.17
2022-12-08T12:39:01.332Z,92.57
2022-12-08T12:41:48.988Z,93.37
2022-12-08T12:44:29.416Z,93.99
2022-12-08T12:46:59.212Z,93.73
2022-12-08T12:49:39.767Z,93.71
2022-12-08T12:52:10.627Z,92.99
2022-12-08T12:54:42.470Z,92.61
2022-12-08T12:57:10.653Z,93.10
2022-12-08T12:59:55.831Z,93.20
2022-12-08T13:02:28.194Z,92.54
2022-12-08T13:05:03.328Z,92.80
2022-12-08T13:07:34.742Z,93.52
2022-12-08T13:10:24.810Z,93.15
2022-12-08T13:13:07.107Z,92.39
2022-12-08T13:15:36.208Z,93.03
2022-12-08T13:18:05.707Z,93.39
2022-12-08T13:20:42.882Z,93.66
2022-12-08T13:23:38.032Z,93.29
2022-12-08T13:26:23.748Z,93.55
2022-12-08T13:29:04.218Z,93.75
2022-12-08T13:31:37.920Z,93.62
2022-12-08T13:34:07.996Z,93.33
2022-12-08T13:36:39.576Z,94.12
2022-12-08T13:39:15.973Z,93.87
2022-12-08T13:41:49.677Z,93.65
2022-12-08T13:47:34.530Z,93.42
2022-12-08T13:53:48.994Z,94.51
2022-12-08T13:56:59.641Z,94.81
2022-12-08T13:58:47.950Z,94.45
2022-12-08T14:01:20.686Z,93.71
2022-12-08T14:04:42.172Z,94.17
2022-12-08T14:06:56.046Z,94.17
2022-12-08T14:09:27.412Z,95.22
2022-12-08T14:12:00.790Z,95.25
2022-12-08T14:17:31.840Z,94.73
2022-12-08T14:20:12.286Z,95.56
2022-12-08T14:22:41.266Z,96.15
2022-12-08T14:25:14.685Z,96.17
2022-12-08T14:27:43.419Z,96.38
2022-12-08T14:30:14.808Z,95.80
2022-12-08T14:33:04.008Z,95.98
2022-12-08T14:35:39.647Z,96.44
2022-12-08T14:38:16.159Z,96.53
2022-12-08T14:40:46.135Z,96.44
2022-12-08T14:43:19.535Z,97.06
2022-12-08T14:45:49.277Z,97.63
2022-12-08T14:48:38.739Z,97.36
2022-12-08T14:51:19.087Z,97.18
2022-12-08T14:53:56.280Z,96.94
2022-12-08T14:56:36.806Z,97.15
2022-12-08T14:59:15.491Z,97.49
2022-12-08T15:01:44.137Z,97.33
2022-12-08T15:04:12.238Z,97.68
2022-12-08T15:07:17.637Z,97.21
2022-12-08T15:09:49.066Z,98.17
2022-12-08T15:12:26.651Z,98.05
2022-12-08T15:14:55.695Z,98.95
2022-12-08T15:17:43.764Z,99.11
2022-12-08T15:20:42.870Z,99.16
2022-12-08T15:23:20.420Z,99.31
2022-12-08T15:25:49.613Z,98.64
2022-12-08T15:28:19.832Z,98.43
2022-12-08T15:30:49.950Z,97.93
2022-12-08T15:33:18.286Z,97.93
2022-12-08T15:35:47.245Z,98.22
2022-12-08T15:38:24.825Z,97.94
2022-12-08T15:40:53.499Z,98.33
2022-12-08T15:43:22.316Z,98.94
2022-12-08T15:45:59.089Z,98.98
2022-12-08T15:48:30.070Z,98.46
2022-12-08T15:50:58.350Z,97.92
2022-12-08T15:53:26.507Z,98.01
2022-12-08T15:58:58.773Z,98.22
2022-12-08T16:01:27.383Z,98.52
2022-12-08T16:09:38.590Z,99.64
2022-12-08T16:13:56.122Z,99.23
2022-12-08T16:16:00.697Z,98.82
2022-12-08T16:18:35.755Z,98.50
2022-12-08T16:21:16.920Z,99.05
2022-12-08T16:23:52.614Z,98.56
2022-12-08T16:29:18.705Z,99.56
2022-12-08T16:31:47.171Z,98.41
2022-12-08T16:34:16.002Z,98.53
2022-12-08T16:36:44.177Z,98.54
2022-12-08T16:39:13.737Z,98.87
2022-12-08T16:42:11.008Z,99.14
2022-12-08T16:44:42.022Z,99.05
2022-12-08T16:47:10.689Z,98.91
2022-12-08T16:49:39.419Z,98.99
2022-12-08T16:52:07.608Z,98.55
2022-12-08T16:54:35.768Z,98.10
2022-12-08T16:57:03.969Z,98.14
2022-12-08T16:59:32.223Z,98.35
2022-12-08T17:02:00.432Z,98.61
2022-12-08T17:04:32.018Z,98.80
2022-12-08T17:07:00.650Z,99.12
2022-12-08T17:09:30.959Z,99.47
2022-12-08T17:12:03.663Z,99.43
2022-12-08T17:14:34.732Z,98.23
2022-12-08T17:17:03.551Z,97.71
2022-12-08T17:19:32.378Z,97.75
2022-12-08T17:22:02.228Z,98.25
2022-12-08T17:24:31.289Z,98.25
2022-12-08T17:27:04.358Z,98.25
2022-12-08T17:29:34.065Z,97.63
2022-12-08T17:32:02.435Z,97.66
2022-12-08T17:34:30.720Z,97.69
2022-12-08T17:36:58.941Z,97.91
2022-12-08T17:39:27.204Z,98.21
2022-12-08T17:41:55.395Z,98.97
2022-12-08T17:44:23.691Z,98.62
2022-12-08T17:46:53.303Z,98.16
2022-12-08T17:49:24.294Z,98.13
2022-12-08T17:51:54.396Z,98.28
2022-12-08T17:54:22.661Z,98.68
2022-12-08T17:56:51.028Z,98.66
2022-12-08T17:59:19.340Z,99.62
2022-12-08T18:01:47.655Z,98.94
2022-12-08T18:04:15.899Z,99.49
2022-12-08T18:06:44.111Z,99.94
2022-12-08T18:09:12.485Z,99.77
2022-12-08T18:11:41.249Z,99.24
2022-12-08T18:14:10.286Z,98.59
2022-12-08T18:16:41.176Z,98.86
2022-12-08T18:19:12.081Z,99.01
2022-12-08T18:21:40.788Z,98.86
2022-12-08T18:24:15.414Z,98.96
2022-12-08T18:26:43.668Z,99.07
2022-12-08T18:29:11.874Z,99.11
2022-12-08T18:31:40.055Z,99.12
2022-12-08T18:34:08.223Z,99.05
2022-12-08T18:36:36.388Z,98.53
2022-12-08T18:39:10.514Z,99.17
2022-12-08T18:41:39.286Z,99.37
2022-12-08T18:44:07.487Z,99.87
2022-12-08T18:46:35.730Z,99.88
2022-12-08T18:49:04.001Z,100.00
2022-12-08T18:51:32.145Z,100.00
2022-12-08T18:54:00.391Z,100.00
2022-12-08T18:56:33.258Z,100.00
2022-12-08T18:59:08.207Z,100.00
2022-12-08T19:01:38.159Z,100.00
2022-12-08T19:06:56.306Z,100.00
2022-12-08T19:09:27.006Z,100.00
2022-12-08T19:11:56.138Z,100.00
2022-12-08T19:14:28.260Z,100.00
2022-12-08T19:17:00.095Z,100.00
2022-12-08T19:19:28.359Z,100.00
2022-12-08T19:21:56.708Z,100.00
2022-12-08T19:24:25.126Z,100.00
2022-12-08T19:26:53.299Z,100.00
2022-12-08T19:29:21.508Z,100.00
2022-12-08T19:31:49.744Z,100.00
2022-12-08T19:34:18.049Z,99.94
2022-12-08T19:36:46.346Z,99.88
2022-12-08T19:39:40.760Z,100.00
2022-12-08T19:42:35.552Z,100.00
2022-12-08T19:45:12.026Z,100.00
2022-12-08T19:47:40.990Z,100.00
2022-12-08T19:50:29.277Z,99.95
2022-12-08T19:52:57.780Z,99.95
2022-12-08T19:55:26.591Z,100.00
2022-12-08T19:57:56.860Z,100.00
2022-12-08T20:00:25.539Z,100.00
2022-12-08T20:02:53.734Z,100.00
2022-12-08T20:05:23.366Z,100.00
2022-12-08T20:07:55.682Z,100.00
2022-12-08T20:10:29.332Z,100.00
2022-12-08T20:13:17.511Z,100.00
2022-12-08T20:15:46.419Z,100.00
2022-12-08T20:18:15.879Z,100.00
2022-12-08T20:20:45.191Z,100.00
2022-12-08T20:23:14.602Z,100.00
2022-12-08T20:25:44.875Z,100.00
2022-12-08T20:28:13.048Z,100.00
2022-12-08T20:30:42.656Z,100.00
2022-12-08T20:33:13.279Z,100.00
2022-12-08T20:35:41.476Z,100.00
2022-12-08T20:38:09.878Z,100.00
2022-12-08T20:40:42.667Z,100.00
2022-12-08T20:43:10.920Z,100.00
2022-12-08T20:45:39.249Z,100.00
2022-12-08T20:48:07.622Z,100.00
2022-12-08T20:50:35.871Z,100.00
2022-12-08T20:53:04.217Z,100.00
2022-12-08T20:55:32.662Z,100.00
2022-12-08T20:58:01.373Z,100.00
2022-12-08T21:00:29.649Z,100.00
2022-12-08T21:02:58.041Z,100.00
2022-12-08T21:05:26.481Z,100.00
2022-12-08T21:07:55.012Z,100.00
2022-12-08T21:10:23.187Z,100.00
2022-12-08T21:12:51.347Z,100.00
2022-12-08T21:15:19.510Z,100.00
2022-12-08T21:17:47.738Z,100.00
2022-12-08T21:20:16.368Z,100.00
2022-12-08T21:22:44.631Z,100.00
2022-12-08T21:25:12.980Z,100.00
2022-12-08T21:27:41.483Z,100.00
2022-12-08T21:30:10.831Z,100.00
2022-12-08T21:32:40.113Z,100.00
2022-12-08T21:35:09.321Z,100.00
2022-12-08T21:37:37.687Z,100.00
2022-12-08T21:40:07.297Z,100.00
2022-12-08T21:42:45.196Z,100.00
2022-12-08T21:45:18.437Z,100.00
2022-12-08T21:47:48.370Z,100.00
2022-12-08T21:50:17.253Z,100.00
2022-12-08T21:52:47.576Z,100.00
2022-12-08T21:55:17.435Z,100.00
2022-12-08T21:57:45.737Z,100.00
2022-12-08T22:00:16.216Z,100.00
2022-12-08T22:02:45.624Z,100.00
2022-12-08T22:05:14.027Z,100.00
2022-12-08T22:07:42.500Z,100.00
2022-12-08T22:10:11.530Z,100.00
2022-12-08T22:12:40.386Z,100.00
2022-12-08T22:15:10.183Z,100.00
2022-12-08T22:17:40.041Z,100.00
2022-12-08T22:20:11.767Z,100.00
2022-12-08T22:22:40.926Z,100.00
2022-12-08T22:25:12.662Z,100.00
2022-12-08T22:27:41.550Z,100.00
2022-12-08T22:30:10.804Z,100.00
2022-12-08T22:32:39.990Z,100.00
2022-12-08T22:35:08.817Z,100.00
2022-12-08T22:37:37.036Z,100.00
2022-12-08T22:40:06.558Z,100.00
2022-12-08T22:42:34.861Z,100.00
2022-12-08T22:45:03.074Z,100.00
2022-12-08T22:47:31.231Z,100.00
2022-12-08T22:49:59.358Z,100.00
2022-12-08T22:52:27.689Z,100.00
2022-12-08T22:54:55.827Z,100.00
2022-12-08T22:57:23.923Z,100.00
2022-12-08T22:59:52.295Z,100.00
2022-12-08T23:02:20.497Z,100.00
2022-12-08T23:04:48.984Z,100.00
2022-12-08T23:07:17.380Z,100.00
2022-12-08T23:09:45.596Z,100.00
2022-12-08T23:12:14.053Z,100.00
2022-12-08T23:14:42.528Z,100.00
2022-12-08T23:17:11.282Z,100.00
2022-12-08T23:19:39.647Z,100.00
2022-12-08T23:22:07.990Z,100.00
2022-12-08T23:24:36.267Z,100.00
2022-12-08T23:27:04.625Z,100.00
2022-12-08T23:29:32.929Z,100.00
2022-12-08T23:32:01.252Z,100.00
2022-12-08T23:34:29.366Z,100.00
2022-12-08T23:36:57.561Z,100.00
2022-12-08T23:39:25.757Z,100.00
2022-12-08T23:41:53.886Z,100.00
2022-12-08T23:44:22.008Z,100.00
2022-12-08T23:46:50.446Z,100.00
2022-12-08T23:49:18.844Z,100.00
2022-12-08T23:51:47.118Z,100.00
2022-12-08T23:54:15.442Z,100.00
2022-12-08T23:56:44.048Z,100.00
2022-12-08T23:59:12.205Z,100.00
